<?xml version="1.0" encoding="UTF-8" standalone="no" ?>
<gpx xmlns="http://www.topografix.com/GPX/1/1" xmlns:xsi="http://www.w3.org/2001/XMLSchema-instance" xsi:schemaLocation="http://www.topografix.com/GPX/1/1 http://www.topografix.com/GPX/1/1/gpx.xsd" version="1.1" creator="VisuGPX - https://www.visugpx.com">
  <metadata>
    <name>83- M- La Garde Freinet</name>
    <desc><![CDATA[83- M- La Garde Freinet. Chapelle St Eloi. Notre Dame de Miremer]]></desc>
  </metadata>
  <wpt lat="43.31328" lon="6.47185">
    <ele>396</ele>
    <name><![CDATA[]]></name>
    <type><![CDATA[GENERIC]]></type>
  </wpt>
  <wpt lat="43.31325" lon="6.47164">
    <ele>392</ele>
    <name><![CDATA[]]></name>
    <type><![CDATA[GENERIC]]></type>
  </wpt>
  <trk>
    <name><![CDATA[Notre Dame de Miremer La Garde Freinet ]]></name>
    <trkseg>
      <trkpt lat="43.31328" lon="6.47185">
        <ele>396</ele>
        <time>2024-12-18T13:18:50.000Z</time>
      </trkpt>
      <trkpt lat="43.31321" lon="6.47188">
        <ele>381</ele>
        <time>2024-12-18T13:18:52.000Z</time>
      </trkpt>
      <trkpt lat="43.31295" lon="6.47172">
        <ele>379</ele>
        <time>2024-12-18T13:20:58.000Z</time>
      </trkpt>
      <trkpt lat="43.31262" lon="6.47164">
        <ele>378</ele>
        <time>2024-12-18T13:21:22.000Z</time>
      </trkpt>
      <trkpt lat="43.3123" lon="6.47148">
        <ele>376</ele>
        <time>2024-12-18T13:21:53.000Z</time>
      </trkpt>
      <trkpt lat="43.312" lon="6.4713">
        <ele>372</ele>
        <time>2024-12-18T13:22:17.000Z</time>
      </trkpt>
      <trkpt lat="43.3117" lon="6.47117">
        <ele>370</ele>
        <time>2024-12-18T13:22:41.000Z</time>
      </trkpt>
      <trkpt lat="43.31138" lon="6.47111">
        <ele>369</ele>
        <time>2024-12-18T13:23:05.000Z</time>
      </trkpt>
      <trkpt lat="43.31105" lon="6.47105">
        <ele>368</ele>
        <time>2024-12-18T13:23:32.000Z</time>
      </trkpt>
      <trkpt lat="43.31072" lon="6.471">
        <ele>367</ele>
        <time>2024-12-18T13:23:56.000Z</time>
      </trkpt>
      <trkpt lat="43.3104" lon="6.47095">
        <ele>365</ele>
        <time>2024-12-18T13:24:17.000Z</time>
      </trkpt>
      <trkpt lat="43.31008" lon="6.47088">
        <ele>364</ele>
        <time>2024-12-18T13:24:41.000Z</time>
      </trkpt>
      <trkpt lat="43.30978" lon="6.47077">
        <ele>362</ele>
        <time>2024-12-18T13:25:05.000Z</time>
      </trkpt>
      <trkpt lat="43.30945" lon="6.47069">
        <ele>361</ele>
        <time>2024-12-18T13:25:32.000Z</time>
      </trkpt>
      <trkpt lat="43.30913" lon="6.47068">
        <ele>360</ele>
        <time>2024-12-18T13:25:53.000Z</time>
      </trkpt>
      <trkpt lat="43.30882" lon="6.47063">
        <ele>359</ele>
        <time>2024-12-18T13:26:14.000Z</time>
      </trkpt>
      <trkpt lat="43.30851" lon="6.47054">
        <ele>358</ele>
        <time>2024-12-18T13:26:41.000Z</time>
      </trkpt>
      <trkpt lat="43.3082" lon="6.47038">
        <ele>357</ele>
        <time>2024-12-18T13:27:08.000Z</time>
      </trkpt>
      <trkpt lat="43.30794" lon="6.47013">
        <ele>357</ele>
        <time>2024-12-18T13:27:32.000Z</time>
      </trkpt>
      <trkpt lat="43.30774" lon="6.4698">
        <ele>356</ele>
        <time>2024-12-18T13:27:56.000Z</time>
      </trkpt>
      <trkpt lat="43.30748" lon="6.46954">
        <ele>357</ele>
        <time>2024-12-18T13:28:20.000Z</time>
      </trkpt>
      <trkpt lat="43.30718" lon="6.46944">
        <ele>358</ele>
        <time>2024-12-18T13:28:44.000Z</time>
      </trkpt>
      <trkpt lat="43.30686" lon="6.46935">
        <ele>358</ele>
        <time>2024-12-18T13:29:08.000Z</time>
      </trkpt>
      <trkpt lat="43.3066" lon="6.4691">
        <ele>358</ele>
        <time>2024-12-18T13:29:35.000Z</time>
      </trkpt>
      <trkpt lat="43.30634" lon="6.4689">
        <ele>358</ele>
        <time>2024-12-18T13:30:05.000Z</time>
      </trkpt>
      <trkpt lat="43.30607" lon="6.46907">
        <ele>356</ele>
        <time>2024-12-18T13:30:29.000Z</time>
      </trkpt>
      <trkpt lat="43.3058" lon="6.46931">
        <ele>355</ele>
        <time>2024-12-18T13:30:53.000Z</time>
      </trkpt>
      <trkpt lat="43.30551" lon="6.46956">
        <ele>353</ele>
        <time>2024-12-18T13:31:17.000Z</time>
      </trkpt>
      <trkpt lat="43.30523" lon="6.46979">
        <ele>351</ele>
        <time>2024-12-18T13:31:44.000Z</time>
      </trkpt>
      <trkpt lat="43.30511" lon="6.47018">
        <ele>349</ele>
        <time>2024-12-18T13:32:08.000Z</time>
      </trkpt>
      <trkpt lat="43.30491" lon="6.47052">
        <ele>350</ele>
        <time>2024-12-18T13:32:35.000Z</time>
      </trkpt>
      <trkpt lat="43.30461" lon="6.47071">
        <ele>350</ele>
        <time>2024-12-18T13:32:59.000Z</time>
      </trkpt>
      <trkpt lat="43.30429" lon="6.47078">
        <ele>351</ele>
        <time>2024-12-18T13:33:23.000Z</time>
      </trkpt>
      <trkpt lat="43.30404" lon="6.47098">
        <ele>352</ele>
        <time>2024-12-18T13:33:59.000Z</time>
      </trkpt>
      <trkpt lat="43.30402" lon="6.4714">
        <ele>352</ele>
        <time>2024-12-18T13:35:53.000Z</time>
      </trkpt>
      <trkpt lat="43.30413" lon="6.47183">
        <ele>352</ele>
        <time>2024-12-18T13:36:20.000Z</time>
      </trkpt>
      <trkpt lat="43.30423" lon="6.47226">
        <ele>352</ele>
        <time>2024-12-18T13:36:44.000Z</time>
      </trkpt>
      <trkpt lat="43.30427" lon="6.47273">
        <ele>350</ele>
        <time>2024-12-18T13:37:10.000Z</time>
      </trkpt>
      <trkpt lat="43.30424" lon="6.47319">
        <ele>350</ele>
        <time>2024-12-18T13:37:37.000Z</time>
      </trkpt>
      <trkpt lat="43.30411" lon="6.47359">
        <ele>350</ele>
        <time>2024-12-18T13:38:01.000Z</time>
      </trkpt>
      <trkpt lat="43.30388" lon="6.47392">
        <ele>350</ele>
        <time>2024-12-18T13:38:28.000Z</time>
      </trkpt>
      <trkpt lat="43.30357" lon="6.47408">
        <ele>350</ele>
        <time>2024-12-18T13:38:55.000Z</time>
      </trkpt>
      <trkpt lat="43.30326" lon="6.47418">
        <ele>350</ele>
        <time>2024-12-18T13:39:19.000Z</time>
      </trkpt>
      <trkpt lat="43.30292" lon="6.47428">
        <ele>350</ele>
        <time>2024-12-18T13:39:46.000Z</time>
      </trkpt>
      <trkpt lat="43.30258" lon="6.47437">
        <ele>349</ele>
        <time>2024-12-18T13:40:13.000Z</time>
      </trkpt>
      <trkpt lat="43.30225" lon="6.47442">
        <ele>349</ele>
        <time>2024-12-18T13:40:37.000Z</time>
      </trkpt>
      <trkpt lat="43.3019" lon="6.47442">
        <ele>350</ele>
        <time>2024-12-18T13:41:07.000Z</time>
      </trkpt>
      <trkpt lat="43.30158" lon="6.47441">
        <ele>350</ele>
        <time>2024-12-18T13:41:31.000Z</time>
      </trkpt>
      <trkpt lat="43.30127" lon="6.47435">
        <ele>351</ele>
        <time>2024-12-18T13:41:58.000Z</time>
      </trkpt>
      <trkpt lat="43.30095" lon="6.47423">
        <ele>352</ele>
        <time>2024-12-18T13:42:22.000Z</time>
      </trkpt>
      <trkpt lat="43.30065" lon="6.47412">
        <ele>351</ele>
        <time>2024-12-18T13:42:49.000Z</time>
      </trkpt>
      <trkpt lat="43.30033" lon="6.47412">
        <ele>351</ele>
        <time>2024-12-18T13:43:10.000Z</time>
      </trkpt>
      <trkpt lat="43.30003" lon="6.4742">
        <ele>351</ele>
        <time>2024-12-18T13:43:34.000Z</time>
      </trkpt>
      <trkpt lat="43.29971" lon="6.47422">
        <ele>352</ele>
        <time>2024-12-18T13:43:55.000Z</time>
      </trkpt>
      <trkpt lat="43.29941" lon="6.4741">
        <ele>353</ele>
        <time>2024-12-18T13:44:22.000Z</time>
      </trkpt>
      <trkpt lat="43.29922" lon="6.47373">
        <ele>355</ele>
        <time>2024-12-18T13:44:49.000Z</time>
      </trkpt>
      <trkpt lat="43.29906" lon="6.47334">
        <ele>356</ele>
        <time>2024-12-18T13:45:16.000Z</time>
      </trkpt>
      <trkpt lat="43.29884" lon="6.47324">
        <ele>356</ele>
        <time>2024-12-18T13:45:55.000Z</time>
      </trkpt>
      <trkpt lat="43.29899" lon="6.47318">
        <ele>355</ele>
        <time>2024-12-18T13:46:31.000Z</time>
      </trkpt>
      <trkpt lat="43.2988" lon="6.47336">
        <ele>354</ele>
        <time>2024-12-18T13:46:55.000Z</time>
      </trkpt>
      <trkpt lat="43.29861" lon="6.47371">
        <ele>353</ele>
        <time>2024-12-18T13:47:25.000Z</time>
      </trkpt>
      <trkpt lat="43.29847" lon="6.47412">
        <ele>352</ele>
        <time>2024-12-18T13:47:49.000Z</time>
      </trkpt>
      <trkpt lat="43.29834" lon="6.47452">
        <ele>350</ele>
        <time>2024-12-18T13:48:16.000Z</time>
      </trkpt>
      <trkpt lat="43.29821" lon="6.47491">
        <ele>349</ele>
        <time>2024-12-18T13:48:40.000Z</time>
      </trkpt>
      <trkpt lat="43.29816" lon="6.47537">
        <ele>347</ele>
        <time>2024-12-18T13:49:07.000Z</time>
      </trkpt>
      <trkpt lat="43.29818" lon="6.47584">
        <ele>345</ele>
        <time>2024-12-18T13:49:34.000Z</time>
      </trkpt>
      <trkpt lat="43.29824" lon="6.4763">
        <ele>342</ele>
        <time>2024-12-18T13:50:01.000Z</time>
      </trkpt>
      <trkpt lat="43.29823" lon="6.47675">
        <ele>341</ele>
        <time>2024-12-18T13:50:25.000Z</time>
      </trkpt>
      <trkpt lat="43.29817" lon="6.4772">
        <ele>339</ele>
        <time>2024-12-18T13:50:52.000Z</time>
      </trkpt>
      <trkpt lat="43.29807" lon="6.47763">
        <ele>338</ele>
        <time>2024-12-18T13:51:16.000Z</time>
      </trkpt>
      <trkpt lat="43.29792" lon="6.47802">
        <ele>338</ele>
        <time>2024-12-18T13:51:40.000Z</time>
      </trkpt>
      <trkpt lat="43.29774" lon="6.47838">
        <ele>339</ele>
        <time>2024-12-18T13:52:07.000Z</time>
      </trkpt>
      <trkpt lat="43.29764" lon="6.47879">
        <ele>341</ele>
        <time>2024-12-18T13:55:46.000Z</time>
      </trkpt>
      <trkpt lat="43.29767" lon="6.47924">
        <ele>344</ele>
        <time>2024-12-18T13:56:16.000Z</time>
      </trkpt>
      <trkpt lat="43.29777" lon="6.47965">
        <ele>347</ele>
        <time>2024-12-18T13:57:01.000Z</time>
      </trkpt>
      <trkpt lat="43.2979" lon="6.48007">
        <ele>351</ele>
        <time>2024-12-18T13:57:40.000Z</time>
      </trkpt>
      <trkpt lat="43.298" lon="6.48046">
        <ele>356</ele>
        <time>2024-12-18T13:58:19.000Z</time>
      </trkpt>
      <trkpt lat="43.29789" lon="6.48084">
        <ele>362</ele>
        <time>2024-12-18T13:59:07.000Z</time>
      </trkpt>
      <trkpt lat="43.29783" lon="6.48127">
        <ele>368</ele>
        <time>2024-12-18T14:00:01.000Z</time>
      </trkpt>
      <trkpt lat="43.29778" lon="6.48171">
        <ele>376</ele>
        <time>2024-12-18T14:00:58.000Z</time>
      </trkpt>
      <trkpt lat="43.29775" lon="6.48212">
        <ele>381</ele>
        <time>2024-12-18T14:02:19.000Z</time>
      </trkpt>
      <trkpt lat="43.29754" lon="6.48232">
        <ele>390</ele>
        <time>2024-12-18T14:02:55.000Z</time>
      </trkpt>
      <trkpt lat="43.29765" lon="6.48262">
        <ele>396</ele>
        <time>2024-12-18T14:03:46.000Z</time>
      </trkpt>
      <trkpt lat="43.2975" lon="6.48295">
        <ele>404</ele>
        <time>2024-12-18T14:07:49.000Z</time>
      </trkpt>
      <trkpt lat="43.29739" lon="6.48333">
        <ele>411</ele>
        <time>2024-12-18T14:08:49.000Z</time>
      </trkpt>
      <trkpt lat="43.29746" lon="6.48367">
        <ele>415</ele>
        <time>2024-12-18T14:09:43.000Z</time>
      </trkpt>
      <trkpt lat="43.29727" lon="6.48385">
        <ele>422</ele>
        <time>2024-12-18T14:10:29.000Z</time>
      </trkpt>
      <trkpt lat="43.29736" lon="6.4841">
        <ele>427</ele>
        <time>2024-12-18T14:11:19.000Z</time>
      </trkpt>
      <trkpt lat="43.2971" lon="6.48419">
        <ele>432</ele>
        <time>2024-12-18T14:11:46.000Z</time>
      </trkpt>
      <trkpt lat="43.29679" lon="6.48424">
        <ele>436</ele>
        <time>2024-12-18T14:12:13.000Z</time>
      </trkpt>
      <trkpt lat="43.29653" lon="6.48445">
        <ele>438</ele>
        <time>2024-12-18T14:17:52.000Z</time>
      </trkpt>
      <trkpt lat="43.2963" lon="6.48475">
        <ele>440</ele>
        <time>2024-12-18T14:18:34.000Z</time>
      </trkpt>
      <trkpt lat="43.29614" lon="6.48502">
        <ele>441</ele>
        <time>2024-12-18T14:22:31.000Z</time>
      </trkpt>
      <trkpt lat="43.29638" lon="6.48504">
        <ele>441</ele>
        <time>2024-12-18T14:24:25.000Z</time>
      </trkpt>
      <trkpt lat="43.29661" lon="6.48494">
        <ele>441</ele>
        <time>2024-12-18T14:25:13.000Z</time>
      </trkpt>
      <trkpt lat="43.29644" lon="6.48476">
        <ele>439</ele>
        <time>2024-12-18T14:36:01.000Z</time>
      </trkpt>
      <trkpt lat="43.29645" lon="6.48439">
        <ele>437</ele>
        <time>2024-12-18T14:36:37.000Z</time>
      </trkpt>
      <trkpt lat="43.29622" lon="6.48417">
        <ele>435</ele>
        <time>2024-12-18T14:40:19.000Z</time>
      </trkpt>
      <trkpt lat="43.29592" lon="6.48405">
        <ele>432</ele>
        <time>2024-12-18T14:40:43.000Z</time>
      </trkpt>
      <trkpt lat="43.29559" lon="6.48405">
        <ele>429</ele>
        <time>2024-12-18T14:41:19.000Z</time>
      </trkpt>
      <trkpt lat="43.29525" lon="6.48407">
        <ele>426</ele>
        <time>2024-12-18T14:41:49.000Z</time>
      </trkpt>
      <trkpt lat="43.29499" lon="6.48403">
        <ele>423</ele>
        <time>2024-12-18T14:42:16.000Z</time>
      </trkpt>
      <trkpt lat="43.29509" lon="6.48373">
        <ele>419</ele>
        <time>2024-12-18T14:42:43.000Z</time>
      </trkpt>
      <trkpt lat="43.29488" lon="6.48351">
        <ele>416</ele>
        <time>2024-12-18T14:43:37.000Z</time>
      </trkpt>
      <trkpt lat="43.29461" lon="6.48369">
        <ele>413</ele>
        <time>2024-12-18T14:44:04.000Z</time>
      </trkpt>
      <trkpt lat="43.29448" lon="6.48409">
        <ele>410</ele>
        <time>2024-12-18T14:44:28.000Z</time>
      </trkpt>
      <trkpt lat="43.29441" lon="6.48453">
        <ele>406</ele>
        <time>2024-12-18T14:45:01.000Z</time>
      </trkpt>
      <trkpt lat="43.29441" lon="6.48499">
        <ele>403</ele>
        <time>2024-12-18T14:45:28.000Z</time>
      </trkpt>
      <trkpt lat="43.29449" lon="6.48545">
        <ele>400</ele>
        <time>2024-12-18T14:45:58.000Z</time>
      </trkpt>
      <trkpt lat="43.2946" lon="6.48589">
        <ele>397</ele>
        <time>2024-12-18T14:46:28.000Z</time>
      </trkpt>
      <trkpt lat="43.29485" lon="6.48617">
        <ele>394</ele>
        <time>2024-12-18T14:47:01.000Z</time>
      </trkpt>
      <trkpt lat="43.29517" lon="6.48631">
        <ele>392</ele>
        <time>2024-12-18T14:47:28.000Z</time>
      </trkpt>
      <trkpt lat="43.29549" lon="6.48639">
        <ele>391</ele>
        <time>2024-12-18T14:47:55.000Z</time>
      </trkpt>
      <trkpt lat="43.2958" lon="6.48649">
        <ele>390</ele>
        <time>2024-12-18T14:48:19.000Z</time>
      </trkpt>
      <trkpt lat="43.29612" lon="6.48658">
        <ele>390</ele>
        <time>2024-12-18T14:48:49.000Z</time>
      </trkpt>
      <trkpt lat="43.29645" lon="6.48659">
        <ele>389</ele>
        <time>2024-12-18T14:49:16.000Z</time>
      </trkpt>
      <trkpt lat="43.29679" lon="6.48657">
        <ele>388</ele>
        <time>2024-12-18T14:49:43.000Z</time>
      </trkpt>
      <trkpt lat="43.29712" lon="6.48656">
        <ele>386</ele>
        <time>2024-12-18T14:50:10.000Z</time>
      </trkpt>
      <trkpt lat="43.29745" lon="6.48654">
        <ele>385</ele>
        <time>2024-12-18T14:50:34.000Z</time>
      </trkpt>
      <trkpt lat="43.29778" lon="6.48655">
        <ele>383</ele>
        <time>2024-12-18T14:51:01.000Z</time>
      </trkpt>
      <trkpt lat="43.2981" lon="6.48645">
        <ele>383</ele>
        <time>2024-12-18T14:51:28.000Z</time>
      </trkpt>
      <trkpt lat="43.2984" lon="6.48633">
        <ele>381</ele>
        <time>2024-12-18T14:51:52.000Z</time>
      </trkpt>
      <trkpt lat="43.29872" lon="6.48628">
        <ele>379</ele>
        <time>2024-12-18T14:52:16.000Z</time>
      </trkpt>
      <trkpt lat="43.29902" lon="6.48608">
        <ele>377</ele>
        <time>2024-12-18T14:52:43.000Z</time>
      </trkpt>
      <trkpt lat="43.29929" lon="6.48584">
        <ele>374</ele>
        <time>2024-12-18T14:53:08.000Z</time>
      </trkpt>
      <trkpt lat="43.29958" lon="6.48565">
        <ele>371</ele>
        <time>2024-12-18T14:53:34.000Z</time>
      </trkpt>
      <trkpt lat="43.29989" lon="6.48546">
        <ele>369</ele>
        <time>2024-12-18T14:54:04.000Z</time>
      </trkpt>
      <trkpt lat="43.30016" lon="6.4852">
        <ele>366</ele>
        <time>2024-12-18T14:54:32.000Z</time>
      </trkpt>
      <trkpt lat="43.30035" lon="6.48485">
        <ele>363</ele>
        <time>2024-12-18T14:54:58.000Z</time>
      </trkpt>
      <trkpt lat="43.30045" lon="6.48443">
        <ele>360</ele>
        <time>2024-12-18T14:55:26.000Z</time>
      </trkpt>
      <trkpt lat="43.30046" lon="6.48409">
        <ele>356</ele>
        <time>2024-12-18T14:55:52.000Z</time>
      </trkpt>
      <trkpt lat="43.30061" lon="6.48438">
        <ele>352</ele>
        <time>2024-12-18T14:56:25.000Z</time>
      </trkpt>
      <trkpt lat="43.30071" lon="6.48472">
        <ele>348</ele>
        <time>2024-12-18T14:56:55.000Z</time>
      </trkpt>
      <trkpt lat="43.30085" lon="6.4844">
        <ele>344</ele>
        <time>2024-12-18T14:57:28.000Z</time>
      </trkpt>
      <trkpt lat="43.30089" lon="6.48394">
        <ele>340</ele>
        <time>2024-12-18T15:00:04.000Z</time>
      </trkpt>
      <trkpt lat="43.3008" lon="6.48348">
        <ele>336</ele>
        <time>2024-12-18T15:00:31.000Z</time>
      </trkpt>
      <trkpt lat="43.30076" lon="6.48303">
        <ele>332</ele>
        <time>2024-12-18T15:00:55.000Z</time>
      </trkpt>
      <trkpt lat="43.30067" lon="6.4826">
        <ele>328</ele>
        <time>2024-12-18T15:01:22.000Z</time>
      </trkpt>
      <trkpt lat="43.30048" lon="6.48224">
        <ele>326</ele>
        <time>2024-12-18T15:01:46.000Z</time>
      </trkpt>
      <trkpt lat="43.30033" lon="6.48189">
        <ele>323</ele>
        <time>2024-12-18T15:02:13.000Z</time>
      </trkpt>
      <trkpt lat="43.30038" lon="6.48146">
        <ele>321</ele>
        <time>2024-12-18T15:02:40.000Z</time>
      </trkpt>
      <trkpt lat="43.30034" lon="6.48102">
        <ele>319</ele>
        <time>2024-12-18T15:03:22.000Z</time>
      </trkpt>
      <trkpt lat="43.30022" lon="6.48074">
        <ele>316</ele>
        <time>2024-12-18T15:03:52.000Z</time>
      </trkpt>
      <trkpt lat="43.30039" lon="6.48095">
        <ele>315</ele>
        <time>2024-12-18T15:04:43.000Z</time>
      </trkpt>
      <trkpt lat="43.30063" lon="6.48099">
        <ele>314</ele>
        <time>2024-12-18T15:05:16.000Z</time>
      </trkpt>
      <trkpt lat="43.30043" lon="6.48076">
        <ele>313</ele>
        <time>2024-12-18T15:06:52.000Z</time>
      </trkpt>
      <trkpt lat="43.30017" lon="6.48047">
        <ele>314</ele>
        <time>2024-12-18T15:07:22.000Z</time>
      </trkpt>
      <trkpt lat="43.29991" lon="6.48021">
        <ele>315</ele>
        <time>2024-12-18T15:08:04.000Z</time>
      </trkpt>
      <trkpt lat="43.29963" lon="6.47994">
        <ele>317</ele>
        <time>2024-12-18T15:08:34.000Z</time>
      </trkpt>
      <trkpt lat="43.29931" lon="6.47985">
        <ele>320</ele>
        <time>2024-12-18T15:09:07.000Z</time>
      </trkpt>
      <trkpt lat="43.299" lon="6.47968">
        <ele>322</ele>
        <time>2024-12-18T15:10:04.000Z</time>
      </trkpt>
      <trkpt lat="43.29872" lon="6.47946">
        <ele>324</ele>
        <time>2024-12-18T15:10:46.000Z</time>
      </trkpt>
      <trkpt lat="43.29846" lon="6.47921">
        <ele>327</ele>
        <time>2024-12-18T15:12:46.000Z</time>
      </trkpt>
      <trkpt lat="43.29825" lon="6.4789">
        <ele>329</ele>
        <time>2024-12-18T15:13:10.000Z</time>
      </trkpt>
      <trkpt lat="43.29815" lon="6.47848">
        <ele>331</ele>
        <time>2024-12-18T15:13:37.000Z</time>
      </trkpt>
      <trkpt lat="43.29799" lon="6.47809">
        <ele>333</ele>
        <time>2024-12-18T15:14:07.000Z</time>
      </trkpt>
      <trkpt lat="43.29804" lon="6.47767">
        <ele>335</ele>
        <time>2024-12-18T15:14:52.000Z</time>
      </trkpt>
      <trkpt lat="43.29813" lon="6.47722">
        <ele>337</ele>
        <time>2024-12-18T15:15:22.000Z</time>
      </trkpt>
      <trkpt lat="43.29821" lon="6.47678">
        <ele>339</ele>
        <time>2024-12-18T15:15:52.000Z</time>
      </trkpt>
      <trkpt lat="43.29819" lon="6.47634">
        <ele>341</ele>
        <time>2024-12-18T15:16:19.000Z</time>
      </trkpt>
      <trkpt lat="43.29814" lon="6.47592">
        <ele>343</ele>
        <time>2024-12-18T15:16:46.000Z</time>
      </trkpt>
      <trkpt lat="43.29811" lon="6.47547">
        <ele>345</ele>
        <time>2024-12-18T15:17:13.000Z</time>
      </trkpt>
      <trkpt lat="43.29816" lon="6.47502">
        <ele>348</ele>
        <time>2024-12-18T15:17:37.000Z</time>
      </trkpt>
      <trkpt lat="43.29827" lon="6.4746">
        <ele>350</ele>
        <time>2024-12-18T15:18:05.000Z</time>
      </trkpt>
      <trkpt lat="43.29841" lon="6.47419">
        <ele>353</ele>
        <time>2024-12-18T15:18:31.000Z</time>
      </trkpt>
      <trkpt lat="43.29856" lon="6.47379">
        <ele>354</ele>
        <time>2024-12-18T15:19:01.000Z</time>
      </trkpt>
      <trkpt lat="43.29875" lon="6.47344">
        <ele>355</ele>
        <time>2024-12-18T15:19:31.000Z</time>
      </trkpt>
      <trkpt lat="43.29899" lon="6.47326">
        <ele>356</ele>
        <time>2024-12-18T15:20:01.000Z</time>
      </trkpt>
      <trkpt lat="43.29917" lon="6.47359">
        <ele>356</ele>
        <time>2024-12-18T15:20:34.000Z</time>
      </trkpt>
      <trkpt lat="43.29932" lon="6.47397">
        <ele>357</ele>
        <time>2024-12-18T15:20:58.000Z</time>
      </trkpt>
      <trkpt lat="43.29959" lon="6.47421">
        <ele>357</ele>
        <time>2024-12-18T15:21:25.000Z</time>
      </trkpt>
      <trkpt lat="43.29991" lon="6.47419">
        <ele>358</ele>
        <time>2024-12-18T15:21:49.000Z</time>
      </trkpt>
      <trkpt lat="43.30024" lon="6.47411">
        <ele>358</ele>
        <time>2024-12-18T15:22:16.000Z</time>
      </trkpt>
      <trkpt lat="43.30057" lon="6.47409">
        <ele>358</ele>
        <time>2024-12-18T15:22:40.000Z</time>
      </trkpt>
      <trkpt lat="43.30089" lon="6.47421">
        <ele>358</ele>
        <time>2024-12-18T15:23:04.000Z</time>
      </trkpt>
      <trkpt lat="43.30121" lon="6.47431">
        <ele>357</ele>
        <time>2024-12-18T15:23:31.000Z</time>
      </trkpt>
      <trkpt lat="43.30154" lon="6.4744">
        <ele>357</ele>
        <time>2024-12-18T15:23:55.000Z</time>
      </trkpt>
      <trkpt lat="43.30186" lon="6.47443">
        <ele>358</ele>
        <time>2024-12-18T15:24:22.000Z</time>
      </trkpt>
      <trkpt lat="43.30217" lon="6.4744">
        <ele>357</ele>
        <time>2024-12-18T15:24:43.000Z</time>
      </trkpt>
      <trkpt lat="43.3025" lon="6.47435">
        <ele>356</ele>
        <time>2024-12-18T15:25:10.000Z</time>
      </trkpt>
      <trkpt lat="43.30282" lon="6.47426">
        <ele>355</ele>
        <time>2024-12-18T15:25:34.000Z</time>
      </trkpt>
      <trkpt lat="43.30314" lon="6.4742">
        <ele>354</ele>
        <time>2024-12-18T15:25:58.000Z</time>
      </trkpt>
      <trkpt lat="43.30346" lon="6.4741">
        <ele>353</ele>
        <time>2024-12-18T15:26:25.000Z</time>
      </trkpt>
      <trkpt lat="43.30376" lon="6.47396">
        <ele>353</ele>
        <time>2024-12-18T15:26:49.000Z</time>
      </trkpt>
      <trkpt lat="43.30401" lon="6.47366">
        <ele>353</ele>
        <time>2024-12-18T15:27:16.000Z</time>
      </trkpt>
      <trkpt lat="43.30419" lon="6.47328">
        <ele>354</ele>
        <time>2024-12-18T15:27:43.000Z</time>
      </trkpt>
      <trkpt lat="43.30426" lon="6.47284">
        <ele>355</ele>
        <time>2024-12-18T15:28:10.000Z</time>
      </trkpt>
      <trkpt lat="43.30423" lon="6.47239">
        <ele>355</ele>
        <time>2024-12-18T15:28:37.000Z</time>
      </trkpt>
      <trkpt lat="43.30415" lon="6.47195">
        <ele>354</ele>
        <time>2024-12-18T15:29:04.000Z</time>
      </trkpt>
      <trkpt lat="43.30402" lon="6.47154">
        <ele>354</ele>
        <time>2024-12-18T15:29:32.000Z</time>
      </trkpt>
      <trkpt lat="43.3039" lon="6.47116">
        <ele>354</ele>
        <time>2024-12-18T15:29:56.000Z</time>
      </trkpt>
      <trkpt lat="43.30411" lon="6.47089">
        <ele>354</ele>
        <time>2024-12-18T15:33:56.000Z</time>
      </trkpt>
      <trkpt lat="43.30442" lon="6.47072">
        <ele>355</ele>
        <time>2024-12-18T15:34:47.000Z</time>
      </trkpt>
      <trkpt lat="43.30473" lon="6.47065">
        <ele>356</ele>
        <time>2024-12-18T15:35:11.000Z</time>
      </trkpt>
      <trkpt lat="43.30497" lon="6.47036">
        <ele>357</ele>
        <time>2024-12-18T15:35:41.000Z</time>
      </trkpt>
      <trkpt lat="43.30512" lon="6.46998">
        <ele>358</ele>
        <time>2024-12-18T15:36:08.000Z</time>
      </trkpt>
      <trkpt lat="43.3053" lon="6.46966">
        <ele>360</ele>
        <time>2024-12-18T15:36:38.000Z</time>
      </trkpt>
      <trkpt lat="43.30558" lon="6.46949">
        <ele>361</ele>
        <time>2024-12-18T15:36:59.000Z</time>
      </trkpt>
      <trkpt lat="43.30585" lon="6.46924">
        <ele>361</ele>
        <time>2024-12-18T15:37:26.000Z</time>
      </trkpt>
      <trkpt lat="43.30612" lon="6.46902">
        <ele>361</ele>
        <time>2024-12-18T15:37:53.000Z</time>
      </trkpt>
      <trkpt lat="43.30644" lon="6.469">
        <ele>361</ele>
        <time>2024-12-18T15:38:20.000Z</time>
      </trkpt>
      <trkpt lat="43.30673" lon="6.46923">
        <ele>360</ele>
        <time>2024-12-18T15:38:44.000Z</time>
      </trkpt>
      <trkpt lat="43.30706" lon="6.46939">
        <ele>360</ele>
        <time>2024-12-18T15:39:23.000Z</time>
      </trkpt>
      <trkpt lat="43.30737" lon="6.46945">
        <ele>360</ele>
        <time>2024-12-18T15:39:39.000Z</time>
      </trkpt>
      <trkpt lat="43.30763" lon="6.46968">
        <ele>361</ele>
        <time>2024-12-18T15:40:03.000Z</time>
      </trkpt>
      <trkpt lat="43.30786" lon="6.46999">
        <ele>363</ele>
        <time>2024-12-18T15:40:27.000Z</time>
      </trkpt>
      <trkpt lat="43.30811" lon="6.47031">
        <ele>365</ele>
        <time>2024-12-18T15:41:12.000Z</time>
      </trkpt>
      <trkpt lat="43.30841" lon="6.47049">
        <ele>366</ele>
        <time>2024-12-18T15:41:39.000Z</time>
      </trkpt>
      <trkpt lat="43.30875" lon="6.4706">
        <ele>367</ele>
        <time>2024-12-18T15:42:00.000Z</time>
      </trkpt>
      <trkpt lat="43.30907" lon="6.47066">
        <ele>369</ele>
        <time>2024-12-18T15:42:30.000Z</time>
      </trkpt>
      <trkpt lat="43.3094" lon="6.4707">
        <ele>370</ele>
        <time>2024-12-18T15:42:57.000Z</time>
      </trkpt>
      <trkpt lat="43.30972" lon="6.47079">
        <ele>371</ele>
        <time>2024-12-18T15:43:24.000Z</time>
      </trkpt>
      <trkpt lat="43.31003" lon="6.47087">
        <ele>372</ele>
        <time>2024-12-18T15:43:45.000Z</time>
      </trkpt>
      <trkpt lat="43.31036" lon="6.47095">
        <ele>373</ele>
        <time>2024-12-18T15:44:12.000Z</time>
      </trkpt>
      <trkpt lat="43.31068" lon="6.47102">
        <ele>374</ele>
        <time>2024-12-18T15:44:39.000Z</time>
      </trkpt>
      <trkpt lat="43.31101" lon="6.47108">
        <ele>375</ele>
        <time>2024-12-18T15:45:06.000Z</time>
      </trkpt>
      <trkpt lat="43.31133" lon="6.47113">
        <ele>376</ele>
        <time>2024-12-18T15:45:31.000Z</time>
      </trkpt>
      <trkpt lat="43.31166" lon="6.47116">
        <ele>378</ele>
        <time>2024-12-18T15:46:00.000Z</time>
      </trkpt>
      <trkpt lat="43.31197" lon="6.47125">
        <ele>380</ele>
        <time>2024-12-18T15:46:31.000Z</time>
      </trkpt>
      <trkpt lat="43.31227" lon="6.47144">
        <ele>380</ele>
        <time>2024-12-18T15:46:57.000Z</time>
      </trkpt>
      <trkpt lat="43.31256" lon="6.47164">
        <ele>380</ele>
        <time>2024-12-18T15:47:25.000Z</time>
      </trkpt>
      <trkpt lat="43.31291" lon="6.47168">
        <ele>386</ele>
        <time>2024-12-18T15:47:57.000Z</time>
      </trkpt>
      <trkpt lat="43.31325" lon="6.47164">
        <ele>392</ele>
        <time>2024-12-18T15:48:27.000Z</time>
      </trkpt>
    </trkseg>
  </trk>
</gpx>